Soldier Pond, Maine
Current Conditions -  °F | °C
As of 12:53 AM on Thursday 29 Jan 2015 (Local Time) from KFVE Reporting Station
Clear Clear  
Wind Chill: -5°   Ceiling: Unl
Heat Index:   Visibility: 10mi
Dew Point: -4°   Wind: 5mph
Humidity: 70%   Direction: 270°W
Pressure: 30.07"   Gusts: NA
Location:  47.16°N, 68.57°W
Report Text: KFVE 290553Z AUTO 27004KT 10SM CLR M16/M20 A3007 RMK AO2 SLP205 T11561200 11133 21156 52018
Loading
Personal Weather Stations






























Interactive Weather Map New forecast layout! Learn more

10-Day Weather Forecast

Advertisements
Track Severe Weather on mobile